createdAt,value
2023-05-04T00:00:56.515Z,4.30
2023-05-04T00:06:01.030Z,5.07
2023-05-04T00:11:04.202Z,4.53
2023-05-04T00:16:10.482Z,3.70
2023-05-04T00:21:15.559Z,3.60
2023-05-04T00:26:18.659Z,4.10
2023-05-04T00:31:22.038Z,4.53
2023-05-04T00:36:26.628Z,4.97
2023-05-04T00:41:29.672Z,3.40
2023-05-04T00:46:33.496Z,4.70
2023-05-04T00:51:39.033Z,4.37
2023-05-04T00:56:43.345Z,4.00
2023-05-04T01:01:46.447Z,4.87
2023-05-04T01:06:59.385Z,4.27
2023-05-04T01:12:07.626Z,3.60
2023-05-04T01:17:10.884Z,3.77
2023-05-04T01:22:15.413Z,4.20
2023-05-04T01:27:24.335Z,3.70
2023-05-04T01:32:29.471Z,4.63
2023-05-04T01:37:35.306Z,4.80
2023-05-04T01:42:38.455Z,5.67
2023-05-04T01:47:41.609Z,5.50
2023-05-04T01:52:46.113Z,5.47
2023-05-04T01:57:49.230Z,5.77
2023-05-04T02:02:52.368Z,4.87
2023-05-04T02:07:57.006Z,4.77
2023-05-04T02:13:00.599Z,5.50
2023-05-04T02:18:03.862Z,4.37
2023-05-04T02:23:08.458Z,5.17
2023-05-04T02:28:11.565Z,5.17
2023-05-04T02:33:14.724Z,5.13
2023-05-04T02:38:19.239Z,4.23
2023-05-04T02:43:22.341Z,4.70
2023-05-04T02:48:25.973Z,4.27
2023-05-04T02:53:30.455Z,3.90
2023-05-04T02:58:33.522Z,4.10
2023-05-04T03:03:36.782Z,5.33
2023-05-04T03:08:41.249Z,5.37
2023-05-04T03:13:44.346Z,5.40
2023-05-04T03:24:09.557Z,4.67
2023-05-04T03:29:12.695Z,4.87
2023-05-04T03:34:15.831Z,4.33
2023-05-04T03:39:20.300Z,5.97
2023-05-04T03:44:23.704Z,5.07
2023-05-04T03:49:27.085Z,5.17
2023-05-04T03:54:31.545Z,5.70
2023-05-04T03:59:35.150Z,5.03
2023-05-04T04:04:38.258Z,4.40
2023-05-04T04:09:42.792Z,4.20
2023-05-04T04:14:46.278Z,4.30
2023-05-04T04:19:49.368Z,3.73
2023-05-04T04:24:53.978Z,3.77
2023-05-04T04:29:57.367Z,4.23
2023-05-04T04:35:00.500Z,4.07
2023-05-04T04:40:07.786Z,4.67
2023-05-04T04:45:11.686Z,4.60
2023-05-04T04:50:14.886Z,4.40
2023-05-04T04:55:20.280Z,5.33
2023-05-04T05:00:24.208Z,4.60
2023-05-04T05:05:28.058Z,5.30
2023-05-04T05:10:33.645Z,5.97
2023-05-04T05:15:36.752Z,6.23
2023-05-04T05:20:39.832Z,6.07
2023-05-04T05:25:45.159Z,6.30
2023-05-04T05:30:49.686Z,6.40
2023-05-04T05:35:52.950Z,6.20
2023-05-04T05:40:57.463Z,6.13
2023-05-04T05:46:00.565Z,5.93
2023-05-04T05:51:04.208Z,6.10
2023-05-04T05:56:08.916Z,6.17
2023-05-04T06:01:12.040Z,5.50
2023-05-04T06:06:15.433Z,5.53
2023-05-04T06:11:20.320Z,5.27
2023-05-04T06:16:23.495Z,5.17
2023-05-04T06:21:26.707Z,5.07
2023-05-04T06:26:31.353Z,5.43
2023-05-04T06:31:34.714Z,5.20
2023-05-04T06:36:37.946Z,4.77
2023-05-04T06:41:42.558Z,5.10
2023-05-04T06:46:45.935Z,4.93
2023-05-04T06:51:49.136Z,5.17
2023-05-04T06:56:53.662Z,4.87
2023-05-04T07:01:56.902Z,5.00
2023-05-04T07:07:00.148Z,4.83
2023-05-04T07:12:05.374Z,4.70
2023-05-04T07:17:10.049Z,4.37
2023-05-04T07:22:13.554Z,4.10
2023-05-04T07:27:18.255Z,4.77
2023-05-04T07:32:21.604Z,4.43
2023-05-04T07:37:24.920Z,4.33
2023-05-04T07:42:30.530Z,4.87
2023-05-04T07:47:33.676Z,4.87
2023-05-04T07:52:36.842Z,4.97
2023-05-04T07:57:41.350Z,5.03
2023-05-04T08:02:44.649Z,5.47
2023-05-04T08:07:48.162Z,5.53
2023-05-04T08:12:52.690Z,5.03
2023-05-04T08:17:56.318Z,5.23
2023-05-04T08:22:59.679Z,5.07
2023-05-04T08:28:04.220Z,5.27
2023-05-04T08:33:07.544Z,5.30
2023-05-04T08:38:10.763Z,5.50
2023-05-04T08:43:15.304Z,4.87
2023-05-04T08:48:18.471Z,5.20
2023-05-04T08:53:23.899Z,5.30
2023-05-04T08:58:29.061Z,5.63
2023-05-04T09:03:32.537Z,5.30
2023-05-04T09:08:36.301Z,4.93
2023-05-04T09:13:42.704Z,4.97
2023-05-04T09:18:46.756Z,5.37
2023-05-04T09:23:51.349Z,4.77
2023-05-04T09:28:56.212Z,5.40
2023-05-04T09:34:09.270Z,5.20
2023-05-04T09:39:13.360Z,4.43
2023-05-04T09:44:22.490Z,4.80
2023-05-04T09:49:33.004Z,4.70
2023-05-04T09:54:38.881Z,5.17
2023-05-04T09:59:44.009Z,5.10
2023-05-04T10:04:47.589Z,4.60
2023-05-04T10:09:51.948Z,4.80
2023-05-04T10:14:57.022Z,4.67
2023-05-04T10:20:13.113Z,4.20
2023-05-04T10:25:44.979Z,4.50
2023-05-04T10:30:49.493Z,4.87
2023-05-04T10:35:53.820Z,4.77
2023-05-04T10:40:57.382Z,4.63
2023-05-04T10:46:02.562Z,4.70
2023-05-04T10:51:06.372Z,3.97
2023-05-04T10:56:09.517Z,3.73
2023-05-04T11:01:14.505Z,4.13
2023-05-04T11:06:23.208Z,4.07
2023-05-04T11:11:27.384Z,4.53
2023-05-04T11:16:31.866Z,4.30
2023-05-04T11:21:35.084Z,3.93
2023-05-04T11:26:47.318Z,3.43
2023-05-04T11:31:59.715Z,3.87
2023-05-04T11:37:05.802Z,4.33
2023-05-04T11:42:09.689Z,3.37
2023-05-04T11:47:14.889Z,3.50
2023-05-04T11:52:18.015Z,3.70
2023-05-04T11:57:23.880Z,3.37
2023-05-04T12:02:28.479Z,3.80
2023-05-04T12:07:31.797Z,2.97
2023-05-04T12:12:37.937Z,3.00
2023-05-04T12:17:43.226Z,3.53
2023-05-04T12:22:46.447Z,3.27
2023-05-04T12:27:49.808Z,3.30
2023-05-04T12:32:54.396Z,2.80
2023-05-04T12:37:57.628Z,3.23
2023-05-04T12:43:00.852Z,2.90
2023-05-04T12:48:05.782Z,2.93
2023-05-04T12:53:09.041Z,2.90
2023-05-04T12:58:12.310Z,3.47
2023-05-04T13:03:18.045Z,2.83
2023-05-04T13:08:21.394Z,2.40
2023-05-04T13:13:28.506Z,2.17
2023-05-04T13:18:33.544Z,2.60
2023-05-04T13:23:36.972Z,2.93
2023-05-04T13:28:40.067Z,2.70
2023-05-04T13:33:45.402Z,2.17
2023-05-04T13:38:48.525Z,2.67
2023-05-04T13:43:51.799Z,2.67
2023-05-04T13:48:57.164Z,2.10
2023-05-04T13:54:02.455Z,2.43
2023-05-04T13:59:05.781Z,2.50
2023-05-04T14:04:10.514Z,2.50
2023-05-04T14:09:13.654Z,2.47
2023-05-04T14:14:16.930Z,2.07
2023-05-04T14:19:21.412Z,1.97
2023-05-04T14:24:25.812Z,2.30
2023-05-04T14:29:29.009Z,2.00
2023-05-04T14:34:33.748Z,2.10
2023-05-04T14:39:37.057Z,2.10
2023-05-04T14:44:40.188Z,2.13
2023-05-04T14:49:44.828Z,2.40
2023-05-04T14:54:48.017Z,2.40
2023-05-04T14:59:51.225Z,2.37
2023-05-04T15:04:56.549Z,2.23
2023-05-04T15:09:59.891Z,2.20
2023-05-04T15:15:03.026Z,2.33
2023-05-04T15:20:09.917Z,2.30
2023-05-04T15:25:13.329Z,2.20
2023-05-04T15:30:16.878Z,2.53
2023-05-04T15:35:21.762Z,2.40
2023-05-04T15:40:25.038Z,2.40
2023-05-04T15:45:28.146Z,2.37
2023-05-04T15:50:33.308Z,2.30
2023-05-04T15:55:36.484Z,2.00
2023-05-04T16:00:39.604Z,2.30
2023-05-04T16:05:44.070Z,2.20
2023-05-04T16:10:48.179Z,3.30
2023-05-04T16:15:52.144Z,2.40
2023-05-04T16:20:56.624Z,2.37
2023-05-04T16:25:59.775Z,2.10
2023-05-04T16:31:05.209Z,2.00
2023-05-04T16:36:10.906Z,1.80
2023-05-04T16:41:14.068Z,1.77
2023-05-04T16:46:17.512Z,1.70
2023-05-04T16:51:22.053Z,1.60
2023-05-04T16:56:25.135Z,1.50
2023-05-04T17:01:28.261Z,1.60
2023-05-04T17:06:32.853Z,1.90
2023-05-04T17:11:36.010Z,1.80
2023-05-04T17:16:39.545Z,1.43
2023-05-04T17:21:44.081Z,1.50
2023-05-04T17:26:47.267Z,1.83
2023-05-04T17:31:50.407Z,1.67
2023-05-04T17:36:54.959Z,1.97
2023-05-04T17:41:58.359Z,1.80
2023-05-04T17:47:01.565Z,1.63
2023-05-04T17:52:06.392Z,1.60
2023-05-04T17:57:09.621Z,1.63
2023-05-04T18:02:12.836Z,2.10
2023-05-04T18:07:17.317Z,1.70
2023-05-04T18:12:20.628Z,1.90
2023-05-04T18:17:23.735Z,1.67
2023-05-04T18:22:28.300Z,1.40
2023-05-04T18:27:33.459Z,1.73
2023-05-04T18:32:36.868Z,1.83
2023-05-04T18:37:41.470Z,1.80
2023-05-04T18:42:44.592Z,2.17
2023-05-04T18:47:47.790Z,2.07
2023-05-04T18:52:54.040Z,1.73
2023-05-04T18:57:57.313Z,1.80
2023-05-04T19:03:00.564Z,1.80
2023-05-04T19:08:05.290Z,1.90
2023-05-04T19:13:08.463Z,1.90
2023-05-04T19:18:12.032Z,2.50
2023-05-04T19:23:16.771Z,2.90
2023-05-04T19:28:20.225Z,3.00
2023-05-04T19:33:30.385Z,2.83
2023-05-04T19:38:41.326Z,2.50
2023-05-04T19:43:44.625Z,2.63
2023-05-04T19:48:48.012Z,2.50
2023-05-04T19:53:52.906Z,2.83
2023-05-04T19:58:56.206Z,2.50
2023-05-04T20:03:59.385Z,2.70
2023-05-04T20:09:04.456Z,2.53
2023-05-04T20:14:08.136Z,2.50
2023-05-04T20:19:11.352Z,2.27
2023-05-04T20:24:16.123Z,1.90
2023-05-04T20:29:19.285Z,2.57
2023-05-04T20:34:22.456Z,2.10
2023-05-04T20:39:27.208Z,2.73
2023-05-04T20:44:30.414Z,2.70
2023-05-04T20:49:33.746Z,2.80
2023-05-04T20:54:39.423Z,2.30
2023-05-04T20:59:42.553Z,2.53
2023-05-04T21:04:48.547Z,2.70
2023-05-04T21:09:57.425Z,2.27
2023-05-04T21:15:00.650Z,3.00
2023-05-04T21:20:04.235Z,2.23
2023-05-04T21:25:09.458Z,2.90
2023-05-04T21:30:12.982Z,2.60
2023-05-04T21:35:16.473Z,2.60
2023-05-04T21:40:21.201Z,3.07
2023-05-04T21:45:24.350Z,3.07
2023-05-04T21:50:27.584Z,2.20
2023-05-04T21:55:32.202Z,2.90
2023-05-04T22:00:35.367Z,2.73
2023-05-04T22:05:38.703Z,2.50
2023-05-04T22:10:43.299Z,2.17
2023-05-04T22:15:50.257Z,2.50
2023-05-04T22:20:53.748Z,2.67
2023-05-04T22:25:58.474Z,2.43
2023-05-04T22:31:01.820Z,2.00
2023-05-04T22:36:05.359Z,2.43
2023-05-04T22:41:09.959Z,2.40
2023-05-04T22:46:16.955Z,2.70
2023-05-04T22:51:20.356Z,2.10
2023-05-04T22:56:24.849Z,2.80
2023-05-04T23:01:30.038Z,2.30
2023-05-04T23:06:34.073Z,2.57
2023-05-04T23:11:38.586Z,2.07
2023-05-04T23:16:42.327Z,2.20
2023-05-04T23:21:45.495Z,2.87
2023-05-04T23:26:50.331Z,2.20
2023-05-04T23:31:53.957Z,2.30
2023-05-04T23:36:57.109Z,2.47
2023-05-04T23:42:01.568Z,2.73
2023-05-04T23:47:04.763Z,2.97
2023-05-04T23:52:07.974Z,2.40
2023-05-04T23:57:12.491Z,2.50
